sensor_id;sensor_type;location;lat;lon;timestamp;P1;durP1;ratioP1;P2;durP2;ratioP2
11539;SDS011;5826;54.756;9.192;2023-12-07T00:00:10;32.87;;;22.13;;
11539;SDS011;5826;54.756;9.192;2023-12-07T00:02:36;29.20;;;20.23;;
11539;SDS011;5826;54.756;9.192;2023-12-07T00:05:01;36.10;;;24.27;;
11539;SDS011;5826;54.756;9.192;2023-12-07T00:07:27;38.27;;;26.07;;
11539;SDS011;5826;54.756;9.192;2023-12-07T00:09:52;35.37;;;25.40;;
11539;SDS011;5826;54.756;9.192;2023-12-07T00:12:18;34.33;;;23.23;;
11539;SDS011;5826;54.756;9.192;2023-12-07T00:14:43;32.70;;;22.63;;
11539;SDS011;5826;54.756;9.192;2023-12-07T00:17:09;31.27;;;21.07;;
11539;SDS011;5826;54.756;9.192;2023-12-07T00:19:35;30.07;;;21.50;;
11539;SDS011;5826;54.756;9.192;2023-12-07T00:22:00;32.03;;;22.83;;
11539;SDS011;5826;54.756;9.192;2023-12-07T00:24:26;32.93;;;23.30;;
11539;SDS011;5826;54.756;9.192;2023-12-07T00:26:51;31.20;;;21.40;;
11539;SDS011;5826;54.756;9.192;2023-12-07T00:29:17;33.10;;;22.67;;
11539;SDS011;5826;54.756;9.192;2023-12-07T00:31:42;33.63;;;23.27;;
11539;SDS011;5826;54.756;9.192;2023-12-07T00:34:08;34.33;;;23.97;;
11539;SDS011;5826;54.756;9.192;2023-12-07T00:36:34;31.33;;;21.37;;
11539;SDS011;5826;54.756;9.192;2023-12-07T00:39:00;29.57;;;20.70;;
11539;SDS011;5826;54.756;9.192;2023-12-07T00:41:26;37.97;;;26.23;;
11539;SDS011;5826;54.756;9.192;2023-12-07T00:43:51;29.50;;;20.87;;
11539;SDS011;5826;54.756;9.192;2023-12-07T00:46:16;39.10;;;25.43;;
11539;SDS011;5826;54.756;9.192;2023-12-07T00:48:42;31.63;;;20.80;;
11539;SDS011;5826;54.756;9.192;2023-12-07T00:51:07;33.63;;;22.80;;
11539;SDS011;5826;54.756;9.192;2023-12-07T00:53:33;37.63;;;26.27;;
11539;SDS011;5826;54.756;9.192;2023-12-07T00:55:58;40.30;;;27.77;;
11539;SDS011;5826;54.756;9.192;2023-12-07T00:58:24;39.93;;;26.10;;
11539;SDS011;5826;54.756;9.192;2023-12-07T01:00:49;35.03;;;23.23;;
11539;SDS011;5826;54.756;9.192;2023-12-07T01:03:15;32.07;;;22.37;;
11539;SDS011;5826;54.756;9.192;2023-12-07T01:05:41;36.23;;;24.63;;
11539;SDS011;5826;54.756;9.192;2023-12-07T01:08:06;31.97;;;22.50;;
11539;SDS011;5826;54.756;9.192;2023-12-07T01:10:32;39.33;;;26.90;;
11539;SDS011;5826;54.756;9.192;2023-12-07T01:12:57;39.80;;;27.10;;
11539;SDS011;5826;54.756;9.192;2023-12-07T01:15:23;40.63;;;27.10;;
11539;SDS011;5826;54.756;9.192;2023-12-07T01:17:48;37.67;;;24.53;;
11539;SDS011;5826;54.756;9.192;2023-12-07T01:20:14;40.10;;;27.20;;
11539;SDS011;5826;54.756;9.192;2023-12-07T01:22:40;33.90;;;23.87;;
11539;SDS011;5826;54.756;9.192;2023-12-07T01:25:10;40.20;;;26.47;;
11539;SDS011;5826;54.756;9.192;2023-12-07T01:27:36;39.93;;;27.00;;
11539;SDS011;5826;54.756;9.192;2023-12-07T01:30:02;36.80;;;25.87;;
11539;SDS011;5826;54.756;9.192;2023-12-07T01:32:28;32.93;;;22.67;;
11539;SDS011;5826;54.756;9.192;2023-12-07T01:34:54;37.73;;;24.90;;
11539;SDS011;5826;54.756;9.192;2023-12-07T01:37:20;34.33;;;25.20;;
11539;SDS011;5826;54.756;9.192;2023-12-07T01:39:45;33.87;;;23.23;;
11539;SDS011;5826;54.756;9.192;2023-12-07T01:42:11;29.83;;;20.60;;
11539;SDS011;5826;54.756;9.192;2023-12-07T01:44:37;36.07;;;25.77;;
11539;SDS011;5826;54.756;9.192;2023-12-07T01:47:03;34.80;;;23.37;;
11539;SDS011;5826;54.756;9.192;2023-12-07T01:49:29;42.67;;;27.63;;
11539;SDS011;5826;54.756;9.192;2023-12-07T01:51:55;41.20;;;26.53;;
11539;SDS011;5826;54.756;9.192;2023-12-07T01:54:22;38.60;;;26.77;;
11539;SDS011;5826;54.756;9.192;2023-12-07T01:56:48;38.60;;;26.33;;
11539;SDS011;5826;54.756;9.192;2023-12-07T01:59:13;40.17;;;27.70;;
11539;SDS011;5826;54.756;9.192;2023-12-07T02:01:39;34.47;;;23.13;;
11539;SDS011;5826;54.756;9.192;2023-12-07T02:04:05;32.33;;;22.40;;
11539;SDS011;5826;54.756;9.192;2023-12-07T02:06:30;41.70;;;27.57;;
11539;SDS011;5826;54.756;9.192;2023-12-07T02:08:57;33.27;;;22.67;;
11539;SDS011;5826;54.756;9.192;2023-12-07T02:11:22;40.60;;;25.80;;
11539;SDS011;5826;54.756;9.192;2023-12-07T02:13:48;36.47;;;25.17;;
11539;SDS011;5826;54.756;9.192;2023-12-07T02:16:15;36.60;;;24.40;;
11539;SDS011;5826;54.756;9.192;2023-12-07T02:18:50;39.07;;;26.60;;
11539;SDS011;5826;54.756;9.192;2023-12-07T02:21:25;41.23;;;26.67;;
11539;SDS011;5826;54.756;9.192;2023-12-07T02:24:13;38.90;;;24.07;;
11539;SDS011;5826;54.756;9.192;2023-12-07T02:26:43;34.90;;;22.37;;
11539;SDS011;5826;54.756;9.192;2023-12-07T02:29:09;36.93;;;24.83;;
11539;SDS011;5826;54.756;9.192;2023-12-07T02:31:34;35.77;;;23.30;;
11539;SDS011;5826;54.756;9.192;2023-12-07T02:34:00;33.50;;;23.37;;
11539;SDS011;5826;54.756;9.192;2023-12-07T02:36:26;35.73;;;23.40;;
11539;SDS011;5826;54.756;9.192;2023-12-07T02:38:55;40.27;;;27.03;;
11539;SDS011;5826;54.756;9.192;2023-12-07T02:41:23;42.50;;;28.53;;
11539;SDS011;5826;54.756;9.192;2023-12-07T02:43:50;42.93;;;28.47;;
11539;SDS011;5826;54.756;9.192;2023-12-07T02:46:16;40.63;;;27.13;;
11539;SDS011;5826;54.756;9.192;2023-12-07T02:48:42;38.23;;;27.50;;
11539;SDS011;5826;54.756;9.192;2023-12-07T02:51:08;39.70;;;27.30;;
11539;SDS011;5826;54.756;9.192;2023-12-07T02:53:33;37.70;;;26.23;;
11539;SDS011;5826;54.756;9.192;2023-12-07T02:55:59;38.53;;;26.23;;
11539;SDS011;5826;54.756;9.192;2023-12-07T02:58:24;35.80;;;23.40;;
11539;SDS011;5826;54.756;9.192;2023-12-07T03:00:50;38.90;;;26.50;;
11539;SDS011;5826;54.756;9.192;2023-12-07T03:03:15;32.87;;;21.90;;
11539;SDS011;5826;54.756;9.192;2023-12-07T03:05:41;32.43;;;22.43;;
11539;SDS011;5826;54.756;9.192;2023-12-07T03:08:06;28.57;;;19.27;;
11539;SDS011;5826;54.756;9.192;2023-12-07T03:10:32;36.37;;;24.50;;
11539;SDS011;5826;54.756;9.192;2023-12-07T03:12:57;30.20;;;20.40;;
11539;SDS011;5826;54.756;9.192;2023-12-07T03:15:22;28.93;;;20.10;;
11539;SDS011;5826;54.756;9.192;2023-12-07T03:17:48;30.30;;;20.73;;
11539;SDS011;5826;54.756;9.192;2023-12-07T03:20:14;29.30;;;20.90;;
11539;SDS011;5826;54.756;9.192;2023-12-07T03:22:40;32.57;;;22.30;;
11539;SDS011;5826;54.756;9.192;2023-12-07T03:25:06;34.80;;;23.47;;
11539;SDS011;5826;54.756;9.192;2023-12-07T03:27:32;28.70;;;18.37;;
11539;SDS011;5826;54.756;9.192;2023-12-07T03:29:57;26.87;;;18.70;;
11539;SDS011;5826;54.756;9.192;2023-12-07T03:32:23;31.47;;;21.47;;
11539;SDS011;5826;54.756;9.192;2023-12-07T03:34:48;35.10;;;22.60;;
11539;SDS011;5826;54.756;9.192;2023-12-07T03:37:14;36.23;;;24.83;;
11539;SDS011;5826;54.756;9.192;2023-12-07T03:39:39;25.40;;;18.10;;
11539;SDS011;5826;54.756;9.192;2023-12-07T03:42:05;28.70;;;19.77;;
11539;SDS011;5826;54.756;9.192;2023-12-07T03:44:30;26.03;;;18.47;;
11539;SDS011;5826;54.756;9.192;2023-12-07T03:46:56;26.47;;;18.37;;
11539;SDS011;5826;54.756;9.192;2023-12-07T03:49:21;30.93;;;22.07;;
11539;SDS011;5826;54.756;9.192;2023-12-07T03:51:47;31.23;;;21.00;;
11539;SDS011;5826;54.756;9.192;2023-12-07T03:54:12;24.50;;;17.23;;
11539;SDS011;5826;54.756;9.192;2023-12-07T03:56:38;24.87;;;18.27;;
11539;SDS011;5826;54.756;9.192;2023-12-07T03:59:05;23.53;;;16.90;;
11539;SDS011;5826;54.756;9.192;2023-12-07T04:01:31;26.07;;;18.37;;
11539;SDS011;5826;54.756;9.192;2023-12-07T04:03:57;32.30;;;21.27;;
11539;SDS011;5826;54.756;9.192;2023-12-07T04:06:22;26.93;;;19.20;;
11539;SDS011;5826;54.756;9.192;2023-12-07T04:08:49;25.07;;;17.13;;
11539;SDS011;5826;54.756;9.192;2023-12-07T04:11:15;26.07;;;18.40;;
11539;SDS011;5826;54.756;9.192;2023-12-07T04:13:41;26.90;;;18.67;;
11539;SDS011;5826;54.756;9.192;2023-12-07T04:16:11;29.33;;;21.57;;
11539;SDS011;5826;54.756;9.192;2023-12-07T04:18:37;25.40;;;17.47;;
11539;SDS011;5826;54.756;9.192;2023-12-07T04:21:02;25.63;;;18.00;;
11539;SDS011;5826;54.756;9.192;2023-12-07T04:23:28;23.63;;;16.57;;
11539;SDS011;5826;54.756;9.192;2023-12-07T04:25:54;27.23;;;18.90;;
11539;SDS011;5826;54.756;9.192;2023-12-07T04:28:19;25.00;;;18.20;;
11539;SDS011;5826;54.756;9.192;2023-12-07T04:30:45;27.77;;;18.73;;
11539;SDS011;5826;54.756;9.192;2023-12-07T04:33:10;30.23;;;21.17;;
11539;SDS011;5826;54.756;9.192;2023-12-07T04:35:36;26.50;;;18.57;;
11539;SDS011;5826;54.756;9.192;2023-12-07T04:38:01;27.60;;;18.17;;
11539;SDS011;5826;54.756;9.192;2023-12-07T04:40:27;27.50;;;18.80;;
11539;SDS011;5826;54.756;9.192;2023-12-07T04:42:53;24.83;;;17.70;;
11539;SDS011;5826;54.756;9.192;2023-12-07T04:45:18;27.47;;;18.93;;
11539;SDS011;5826;54.756;9.192;2023-12-07T04:47:44;25.13;;;17.60;;
11539;SDS011;5826;54.756;9.192;2023-12-07T04:50:10;28.00;;;19.17;;
11539;SDS011;5826;54.756;9.192;2023-12-07T04:52:36;26.80;;;19.57;;
11539;SDS011;5826;54.756;9.192;2023-12-07T04:55:01;27.00;;;19.70;;
11539;SDS011;5826;54.756;9.192;2023-12-07T04:57:27;30.03;;;21.90;;
11539;SDS011;5826;54.756;9.192;2023-12-07T04:59:53;26.77;;;19.20;;
11539;SDS011;5826;54.756;9.192;2023-12-07T05:02:18;29.23;;;20.50;;
11539;SDS011;5826;54.756;9.192;2023-12-07T05:04:44;29.00;;;19.63;;
11539;SDS011;5826;54.756;9.192;2023-12-07T05:07:13;29.10;;;20.10;;
11539;SDS011;5826;54.756;9.192;2023-12-07T05:09:39;27.67;;;19.43;;
11539;SDS011;5826;54.756;9.192;2023-12-07T05:12:05;24.57;;;17.53;;
11539;SDS011;5826;54.756;9.192;2023-12-07T05:14:31;21.97;;;16.70;;
11539;SDS011;5826;54.756;9.192;2023-12-07T05:16:57;26.80;;;17.63;;
11539;SDS011;5826;54.756;9.192;2023-12-07T05:19:23;24.80;;;17.67;;
11539;SDS011;5826;54.756;9.192;2023-12-07T05:21:49;23.80;;;17.33;;
11539;SDS011;5826;54.756;9.192;2023-12-07T05:24:15;27.07;;;19.40;;
11539;SDS011;5826;54.756;9.192;2023-12-07T05:26:41;27.03;;;19.33;;
11539;SDS011;5826;54.756;9.192;2023-12-07T05:29:07;26.47;;;18.53;;
11539;SDS011;5826;54.756;9.192;2023-12-07T05:31:33;26.00;;;18.87;;
11539;SDS011;5826;54.756;9.192;2023-12-07T05:33:58;26.20;;;18.03;;
11539;SDS011;5826;54.756;9.192;2023-12-07T05:36:24;21.00;;;15.67;;
11539;SDS011;5826;54.756;9.192;2023-12-07T05:38:51;27.40;;;19.73;;
11539;SDS011;5826;54.756;9.192;2023-12-07T05:41:16;28.17;;;20.47;;
11539;SDS011;5826;54.756;9.192;2023-12-07T05:43:42;29.10;;;20.57;;
11539;SDS011;5826;54.756;9.192;2023-12-07T05:46:07;27.17;;;19.43;;
11539;SDS011;5826;54.756;9.192;2023-12-07T05:48:33;25.83;;;18.07;;
11539;SDS011;5826;54.756;9.192;2023-12-07T05:50:59;27.53;;;20.13;;
11539;SDS011;5826;54.756;9.192;2023-12-07T05:53:24;27.87;;;20.13;;
11539;SDS011;5826;54.756;9.192;2023-12-07T05:55:50;26.83;;;18.87;;
11539;SDS011;5826;54.756;9.192;2023-12-07T05:58:15;27.23;;;18.10;;
11539;SDS011;5826;54.756;9.192;2023-12-07T06:00:43;26.07;;;18.80;;
11539;SDS011;5826;54.756;9.192;2023-12-07T06:03:09;24.93;;;16.90;;
11539;SDS011;5826;54.756;9.192;2023-12-07T06:05:37;25.13;;;17.27;;
11539;SDS011;5826;54.756;9.192;2023-12-07T06:08:03;26.23;;;19.37;;
11539;SDS011;5826;54.756;9.192;2023-12-07T06:10:29;28.33;;;19.17;;
11539;SDS011;5826;54.756;9.192;2023-12-07T06:12:55;30.13;;;20.07;;
11539;SDS011;5826;54.756;9.192;2023-12-07T06:15:21;27.13;;;18.40;;
11539;SDS011;5826;54.756;9.192;2023-12-07T06:17:47;28.10;;;19.60;;
11539;SDS011;5826;54.756;9.192;2023-12-07T06:20:13;22.40;;;15.83;;
11539;SDS011;5826;54.756;9.192;2023-12-07T06:22:38;21.70;;;15.67;;
11539;SDS011;5826;54.756;9.192;2023-12-07T06:25:04;24.57;;;17.07;;
11539;SDS011;5826;54.756;9.192;2023-12-07T06:27:30;25.80;;;19.30;;
11539;SDS011;5826;54.756;9.192;2023-12-07T06:29:56;26.07;;;18.53;;
11539;SDS011;5826;54.756;9.192;2023-12-07T06:32:21;24.83;;;17.47;;
11539;SDS011;5826;54.756;9.192;2023-12-07T06:34:47;29.57;;;19.93;;
11539;SDS011;5826;54.756;9.192;2023-12-07T06:37:12;24.07;;;17.80;;
11539;SDS011;5826;54.756;9.192;2023-12-07T06:39:38;26.20;;;18.13;;
11539;SDS011;5826;54.756;9.192;2023-12-07T06:42:04;23.63;;;16.83;;
11539;SDS011;5826;54.756;9.192;2023-12-07T06:44:29;26.10;;;18.67;;
11539;SDS011;5826;54.756;9.192;2023-12-07T06:46:55;27.73;;;19.67;;
11539;SDS011;5826;54.756;9.192;2023-12-07T06:49:20;29.73;;;20.10;;
11539;SDS011;5826;54.756;9.192;2023-12-07T06:51:46;27.33;;;19.50;;
11539;SDS011;5826;54.756;9.192;2023-12-07T06:54:11;30.97;;;21.87;;
11539;SDS011;5826;54.756;9.192;2023-12-07T06:56:38;31.60;;;21.47;;
11539;SDS011;5826;54.756;9.192;2023-12-07T06:59:04;29.63;;;20.73;;
11539;SDS011;5826;54.756;9.192;2023-12-07T07:01:29;26.90;;;19.10;;
11539;SDS011;5826;54.756;9.192;2023-12-07T07:03:55;30.57;;;20.43;;
11539;SDS011;5826;54.756;9.192;2023-12-07T07:06:21;29.17;;;20.90;;
11539;SDS011;5826;54.756;9.192;2023-12-07T07:08:47;30.07;;;21.17;;
11539;SDS011;5826;54.756;9.192;2023-12-07T07:11:14;26.57;;;18.50;;
11539;SDS011;5826;54.756;9.192;2023-12-07T07:13:40;26.93;;;18.77;;
11539;SDS011;5826;54.756;9.192;2023-12-07T07:16:06;32.97;;;22.87;;
11539;SDS011;5826;54.756;9.192;2023-12-07T07:18:33;31.20;;;21.43;;
11539;SDS011;5826;54.756;9.192;2023-12-07T07:20:58;30.70;;;21.30;;
11539;SDS011;5826;54.756;9.192;2023-12-07T07:23:24;26.77;;;19.37;;
11539;SDS011;5826;54.756;9.192;2023-12-07T07:25:49;32.17;;;20.60;;
11539;SDS011;5826;54.756;9.192;2023-12-07T07:28:15;34.33;;;22.70;;
11539;SDS011;5826;54.756;9.192;2023-12-07T07:30:40;26.60;;;18.30;;
11539;SDS011;5826;54.756;9.192;2023-12-07T07:33:06;30.90;;;20.83;;
11539;SDS011;5826;54.756;9.192;2023-12-07T07:35:31;26.00;;;17.57;;
11539;SDS011;5826;54.756;9.192;2023-12-07T07:37:57;31.77;;;20.97;;
11539;SDS011;5826;54.756;9.192;2023-12-07T07:40:22;25.63;;;17.07;;
11539;SDS011;5826;54.756;9.192;2023-12-07T07:42:49;28.17;;;19.43;;
11539;SDS011;5826;54.756;9.192;2023-12-07T07:45:15;22.73;;;16.53;;
11539;SDS011;5826;54.756;9.192;2023-12-07T07:47:41;25.90;;;17.23;;
11539;SDS011;5826;54.756;9.192;2023-12-07T07:50:07;29.20;;;18.80;;
11539;SDS011;5826;54.756;9.192;2023-12-07T07:52:33;29.90;;;20.13;;
11539;SDS011;5826;54.756;9.192;2023-12-07T07:55:00;26.83;;;18.33;;
11539;SDS011;5826;54.756;9.192;2023-12-07T07:57:27;28.73;;;18.73;;
11539;SDS011;5826;54.756;9.192;2023-12-07T07:59:53;27.17;;;18.20;;
11539;SDS011;5826;54.756;9.192;2023-12-07T08:02:19;33.33;;;20.63;;
11539;SDS011;5826;54.756;9.192;2023-12-07T08:04:46;31.47;;;20.83;;
11539;SDS011;5826;54.756;9.192;2023-12-07T08:07:12;25.27;;;18.63;;
11539;SDS011;5826;54.756;9.192;2023-12-07T08:09:37;25.93;;;18.33;;
11539;SDS011;5826;54.756;9.192;2023-12-07T08:12:03;28.80;;;19.53;;
11539;SDS011;5826;54.756;9.192;2023-12-07T08:14:29;29.87;;;21.23;;
11539;SDS011;5826;54.756;9.192;2023-12-07T08:16:55;30.37;;;19.77;;
11539;SDS011;5826;54.756;9.192;2023-12-07T08:19:20;31.10;;;21.43;;
11539;SDS011;5826;54.756;9.192;2023-12-07T08:21:46;29.17;;;19.60;;
11539;SDS011;5826;54.756;9.192;2023-12-07T08:24:12;26.37;;;18.27;;
11539;SDS011;5826;54.756;9.192;2023-12-07T08:26:37;34.70;;;22.97;;
11539;SDS011;5826;54.756;9.192;2023-12-07T08:29:04;34.20;;;22.23;;
11539;SDS011;5826;54.756;9.192;2023-12-07T08:31:30;24.73;;;18.03;;
11539;SDS011;5826;54.756;9.192;2023-12-07T08:33:55;32.57;;;21.03;;
11539;SDS011;5826;54.756;9.192;2023-12-07T08:36:21;33.47;;;21.23;;
11539;SDS011;5826;54.756;9.192;2023-12-07T08:38:47;35.90;;;24.50;;
11539;SDS011;5826;54.756;9.192;2023-12-07T08:41:13;35.63;;;24.23;;
11539;SDS011;5826;54.756;9.192;2023-12-07T08:43:38;35.50;;;23.17;;
11539;SDS011;5826;54.756;9.192;2023-12-07T08:46:04;36.10;;;23.63;;
11539;SDS011;5826;54.756;9.192;2023-12-07T08:48:32;37.10;;;24.53;;
11539;SDS011;5826;54.756;9.192;2023-12-07T08:50:57;35.77;;;23.43;;
11539;SDS011;5826;54.756;9.192;2023-12-07T08:53:23;32.93;;;22.50;;
11539;SDS011;5826;54.756;9.192;2023-12-07T08:55:48;31.50;;;21.03;;
11539;SDS011;5826;54.756;9.192;2023-12-07T08:58:14;31.77;;;20.67;;
11539;SDS011;5826;54.756;9.192;2023-12-07T09:00:39;36.43;;;24.13;;
11539;SDS011;5826;54.756;9.192;2023-12-07T09:03:05;30.27;;;20.10;;
11539;SDS011;5826;54.756;9.192;2023-12-07T09:05:30;31.00;;;20.97;;
11539;SDS011;5826;54.756;9.192;2023-12-07T09:07:56;37.17;;;25.60;;
11539;SDS011;5826;54.756;9.192;2023-12-07T09:10:22;29.67;;;19.83;;
11539;SDS011;5826;54.756;9.192;2023-12-07T09:12:48;30.47;;;20.17;;
11539;SDS011;5826;54.756;9.192;2023-12-07T09:15:13;33.37;;;21.40;;
11539;SDS011;5826;54.756;9.192;2023-12-07T09:17:39;34.00;;;22.17;;
11539;SDS011;5826;54.756;9.192;2023-12-07T09:20:08;33.83;;;21.63;;
11539;SDS011;5826;54.756;9.192;2023-12-07T09:22:37;31.13;;;21.47;;
11539;SDS011;5826;54.756;9.192;2023-12-07T09:25:04;34.73;;;22.57;;
11539;SDS011;5826;54.756;9.192;2023-12-07T09:27:30;35.27;;;24.00;;
11539;SDS011;5826;54.756;9.192;2023-12-07T09:29:58;33.47;;;22.43;;
11539;SDS011;5826;54.756;9.192;2023-12-07T09:32:23;31.03;;;22.10;;
11539;SDS011;5826;54.756;9.192;2023-12-07T09:34:49;29.30;;;20.13;;
11539;SDS011;5826;54.756;9.192;2023-12-07T09:37:16;30.23;;;21.10;;
11539;SDS011;5826;54.756;9.192;2023-12-07T09:39:41;33.40;;;23.17;;
11539;SDS011;5826;54.756;9.192;2023-12-07T09:42:07;31.17;;;21.40;;
11539;SDS011;5826;54.756;9.192;2023-12-07T09:44:32;25.20;;;18.07;;
11539;SDS011;5826;54.756;9.192;2023-12-07T09:46:58;28.03;;;19.50;;
11539;SDS011;5826;54.756;9.192;2023-12-07T09:49:24;32.33;;;21.77;;
11539;SDS011;5826;54.756;9.192;2023-12-07T09:51:50;27.63;;;19.90;;
11539;SDS011;5826;54.756;9.192;2023-12-07T09:54:16;27.37;;;19.80;;
11539;SDS011;5826;54.756;9.192;2023-12-07T09:56:43;29.77;;;22.83;;
11539;SDS011;5826;54.756;9.192;2023-12-07T09:59:09;31.00;;;22.47;;
11539;SDS011;5826;54.756;9.192;2023-12-07T10:01:34;31.23;;;20.37;;
11539;SDS011;5826;54.756;9.192;2023-12-07T10:04:16;31.67;;;21.20;;
11539;SDS011;5826;54.756;9.192;2023-12-07T10:06:43;30.17;;;19.47;;
11539;SDS011;5826;54.756;9.192;2023-12-07T10:09:10;26.77;;;19.30;;
11539;SDS011;5826;54.756;9.192;2023-12-07T10:11:36;29.13;;;20.20;;
11539;SDS011;5826;54.756;9.192;2023-12-07T10:14:02;23.90;;;16.70;;
11539;SDS011;5826;54.756;9.192;2023-12-07T10:16:27;29.37;;;20.43;;
11539;SDS011;5826;54.756;9.192;2023-12-07T10:18:53;29.03;;;20.30;;
11539;SDS011;5826;54.756;9.192;2023-12-07T10:21:31;28.37;;;19.97;;
11539;SDS011;5826;54.756;9.192;2023-12-07T10:23:57;29.43;;;18.70;;
11539;SDS011;5826;54.756;9.192;2023-12-07T10:26:22;29.07;;;21.30;;
11539;SDS011;5826;54.756;9.192;2023-12-07T10:28:49;33.37;;;23.57;;
11539;SDS011;5826;54.756;9.192;2023-12-07T10:31:18;29.63;;;20.23;;
11539;SDS011;5826;54.756;9.192;2023-12-07T10:33:47;30.97;;;21.43;;
11539;SDS011;5826;54.756;9.192;2023-12-07T10:36:13;31.63;;;22.00;;
11539;SDS011;5826;54.756;9.192;2023-12-07T10:38:38;28.77;;;19.60;;
11539;SDS011;5826;54.756;9.192;2023-12-07T10:41:07;33.63;;;22.70;;
11539;SDS011;5826;54.756;9.192;2023-12-07T10:43:37;25.77;;;18.23;;
11539;SDS011;5826;54.756;9.192;2023-12-07T10:46:06;28.93;;;20.40;;
11539;SDS011;5826;54.756;9.192;2023-12-07T10:48:33;30.07;;;21.80;;
11539;SDS011;5826;54.756;9.192;2023-12-07T10:51:00;29.67;;;19.83;;
11539;SDS011;5826;54.756;9.192;2023-12-07T10:53:34;26.10;;;20.37;;
11539;SDS011;5826;54.756;9.192;2023-12-07T10:56:05;31.47;;;21.07;;
11539;SDS011;5826;54.756;9.192;2023-12-07T10:58:38;27.03;;;19.27;;
11539;SDS011;5826;54.756;9.192;2023-12-07T11:01:07;28.70;;;20.97;;
11539;SDS011;5826;54.756;9.192;2023-12-07T11:03:34;31.87;;;22.27;;
11539;SDS011;5826;54.756;9.192;2023-12-07T11:06:01;32.20;;;23.87;;
11539;SDS011;5826;54.756;9.192;2023-12-07T11:08:36;35.13;;;24.57;;
11539;SDS011;5826;54.756;9.192;2023-12-07T11:14:05;34.33;;;24.47;;
11539;SDS011;5826;54.756;9.192;2023-12-07T11:16:33;30.70;;;21.97;;
11539;SDS011;5826;54.756;9.192;2023-12-07T11:19:00;38.70;;;26.30;;
11539;SDS011;5826;54.756;9.192;2023-12-07T11:21:26;27.57;;;20.70;;
11539;SDS011;5826;54.756;9.192;2023-12-07T11:23:52;36.87;;;26.57;;
11539;SDS011;5826;54.756;9.192;2023-12-07T11:26:27;29.97;;;21.47;;
11539;SDS011;5826;54.756;9.192;2023-12-07T11:28:54;35.20;;;24.13;;
11539;SDS011;5826;54.756;9.192;2023-12-07T11:31:21;32.10;;;22.93;;
11539;SDS011;5826;54.756;9.192;2023-12-07T11:33:46;33.23;;;22.57;;
11539;SDS011;5826;54.756;9.192;2023-12-07T11:36:12;33.47;;;23.77;;
11539;SDS011;5826;54.756;9.192;2023-12-07T11:39:04;34.60;;;24.70;;
11539;SDS011;5826;54.756;9.192;2023-12-07T11:41:33;29.33;;;20.93;;
11539;SDS011;5826;54.756;9.192;2023-12-07T11:44:09;31.47;;;22.60;;
11539;SDS011;5826;54.756;9.192;2023-12-07T11:46:36;39.97;;;26.10;;
11539;SDS011;5826;54.756;9.192;2023-12-07T11:49:02;32.73;;;23.33;;
11539;SDS011;5826;54.756;9.192;2023-12-07T11:51:29;32.80;;;23.83;;
11539;SDS011;5826;54.756;9.192;2023-12-07T11:53:54;34.00;;;24.70;;
11539;SDS011;5826;54.756;9.192;2023-12-07T11:56:20;32.33;;;22.70;;
11539;SDS011;5826;54.756;9.192;2023-12-07T11:58:46;31.47;;;22.60;;
11539;SDS011;5826;54.756;9.192;2023-12-07T12:01:12;29.90;;;21.10;;
11539;SDS011;5826;54.756;9.192;2023-12-07T12:03:38;32.17;;;24.43;;
11539;SDS011;5826;54.756;9.192;2023-12-07T12:06:04;35.03;;;24.50;;
11539;SDS011;5826;54.756;9.192;2023-12-07T12:08:31;27.53;;;20.07;;
11539;SDS011;5826;54.756;9.192;2023-12-07T12:10:56;29.20;;;21.40;;
11539;SDS011;5826;54.756;9.192;2023-12-07T12:13:28;30.03;;;22.10;;
11539;SDS011;5826;54.756;9.192;2023-12-07T12:15:56;32.27;;;24.10;;
11539;SDS011;5826;54.756;9.192;2023-12-07T12:18:22;32.40;;;25.13;;
11539;SDS011;5826;54.756;9.192;2023-12-07T12:20:49;29.73;;;22.00;;
11539;SDS011;5826;54.756;9.192;2023-12-07T12:23:16;33.37;;;25.13;;
11539;SDS011;5826;54.756;9.192;2023-12-07T12:25:41;27.93;;;20.97;;
11539;SDS011;5826;54.756;9.192;2023-12-07T12:28:07;29.77;;;21.63;;
11539;SDS011;5826;54.756;9.192;2023-12-07T12:30:34;27.30;;;20.27;;
11539;SDS011;5826;54.756;9.192;2023-12-07T12:33:01;25.93;;;20.63;;
11539;SDS011;5826;54.756;9.192;2023-12-07T12:35:28;25.90;;;19.13;;
11539;SDS011;5826;54.756;9.192;2023-12-07T12:37:53;27.73;;;20.57;;
11539;SDS011;5826;54.756;9.192;2023-12-07T12:40:22;28.63;;;20.23;;
11539;SDS011;5826;54.756;9.192;2023-12-07T12:42:49;30.27;;;22.40;;
11539;SDS011;5826;54.756;9.192;2023-12-07T12:45:16;27.57;;;20.70;;
11539;SDS011;5826;54.756;9.192;2023-12-07T12:47:46;27.70;;;21.67;;
11539;SDS011;5826;54.756;9.192;2023-12-07T12:50:31;26.47;;;20.10;;
11539;SDS011;5826;54.756;9.192;2023-12-07T12:53:07;27.00;;;19.90;;
11539;SDS011;5826;54.756;9.192;2023-12-07T12:55:39;29.03;;;21.40;;
11539;SDS011;5826;54.756;9.192;2023-12-07T12:58:06;30.97;;;22.90;;
11539;SDS011;5826;54.756;9.192;2023-12-07T13:00:33;32.13;;;23.00;;
11539;SDS011;5826;54.756;9.192;2023-12-07T13:03:00;31.80;;;22.77;;
11539;SDS011;5826;54.756;9.192;2023-12-07T13:05:26;25.80;;;19.23;;
11539;SDS011;5826;54.756;9.192;2023-12-07T13:07:52;28.60;;;21.87;;
11539;SDS011;5826;54.756;9.192;2023-12-07T13:10:18;26.87;;;20.00;;
11539;SDS011;5826;54.756;9.192;2023-12-07T13:12:44;29.60;;;22.70;;
11539;SDS011;5826;54.756;9.192;2023-12-07T13:15:10;28.00;;;20.67;;
11539;SDS011;5826;54.756;9.192;2023-12-07T13:17:37;29.83;;;22.00;;
11539;SDS011;5826;54.756;9.192;2023-12-07T13:20:04;32.70;;;28.63;;
11539;SDS011;5826;54.756;9.192;2023-12-07T13:22:31;28.27;;;22.03;;
11539;SDS011;5826;54.756;9.192;2023-12-07T13:24:57;32.50;;;23.33;;
11539;SDS011;5826;54.756;9.192;2023-12-07T13:27:22;28.50;;;21.50;;
11539;SDS011;5826;54.756;9.192;2023-12-07T13:29:48;27.47;;;20.83;;
11539;SDS011;5826;54.756;9.192;2023-12-07T13:32:14;27.17;;;20.00;;
11539;SDS011;5826;54.756;9.192;2023-12-07T13:34:40;28.00;;;21.17;;
11539;SDS011;5826;54.756;9.192;2023-12-07T13:37:06;27.70;;;21.67;;
11539;SDS011;5826;54.756;9.192;2023-12-07T13:39:31;28.37;;;21.00;;
11539;SDS011;5826;54.756;9.192;2023-12-07T13:41:57;24.77;;;18.40;;
11539;SDS011;5826;54.756;9.192;2023-12-07T13:44:23;27.13;;;19.90;;
11539;SDS011;5826;54.756;9.192;2023-12-07T13:46:49;30.57;;;22.13;;
11539;SDS011;5826;54.756;9.192;2023-12-07T13:49:14;27.30;;;19.83;;
11539;SDS011;5826;54.756;9.192;2023-12-07T13:51:40;26.77;;;20.07;;
11539;SDS011;5826;54.756;9.192;2023-12-07T13:54:06;32.87;;;23.57;;
11539;SDS011;5826;54.756;9.192;2023-12-07T13:56:33;27.83;;;21.37;;
11539;SDS011;5826;54.756;9.192;2023-12-07T13:58:59;25.87;;;20.03;;
11539;SDS011;5826;54.756;9.192;2023-12-07T14:01:25;29.37;;;21.37;;
11539;SDS011;5826;54.756;9.192;2023-12-07T14:03:51;29.07;;;22.07;;
11539;SDS011;5826;54.756;9.192;2023-12-07T14:06:23;31.37;;;22.37;;
11539;SDS011;5826;54.756;9.192;2023-12-07T14:08:49;32.20;;;28.20;;
11539;SDS011;5826;54.756;9.192;2023-12-07T14:11:15;30.23;;;23.73;;
11539;SDS011;5826;54.756;9.192;2023-12-07T14:13:42;29.67;;;22.50;;
11539;SDS011;5826;54.756;9.192;2023-12-07T14:16:07;29.73;;;22.27;;
11539;SDS011;5826;54.756;9.192;2023-12-07T14:18:33;30.00;;;22.93;;
11539;SDS011;5826;54.756;9.192;2023-12-07T14:20:59;32.03;;;23.30;;
11539;SDS011;5826;54.756;9.192;2023-12-07T14:23:25;32.17;;;24.77;;
11539;SDS011;5826;54.756;9.192;2023-12-07T14:25:51;34.73;;;24.57;;
11539;SDS011;5826;54.756;9.192;2023-12-07T14:28:17;29.43;;;22.13;;
11539;SDS011;5826;54.756;9.192;2023-12-07T14:30:42;32.70;;;23.80;;